createdAt,value
2022-11-27T00:01:33.643Z,100920.25
2022-11-27T00:04:00.917Z,100921.13
2022-11-27T00:06:29.575Z,100921.13
2022-11-27T00:09:08.937Z,100921.09
2022-11-27T00:11:36.097Z,100919.38
2022-11-27T00:14:03.480Z,100923.72
2022-11-27T00:16:30.982Z,100915.03
2022-11-27T00:18:59.336Z,100911.53
2022-11-27T00:21:31.845Z,100917.63
2022-11-27T00:24:01.678Z,100931.63
2022-11-27T00:26:35.903Z,100922.88
2022-11-27T00:29:05.296Z,100923.75
2022-11-27T00:31:34.074Z,100921.13
2022-11-27T00:34:03.815Z,100918.47
2022-11-27T00:36:34.541Z,100928.09
2022-11-27T00:39:02.143Z,100927.22
2022-11-27T00:41:30.765Z,100932.44
2022-11-27T00:44:00.081Z,100929.84
2022-11-27T00:46:30.990Z,100934.22
2022-11-27T00:49:00.685Z,100925.47
2022-11-27T00:51:29.149Z,100939.41
2022-11-27T00:53:58.819Z,100930.69
2022-11-27T00:56:31.879Z,100937.66
2022-11-27T00:59:01.665Z,100932.44
2022-11-27T01:01:34.650Z,100926.34
2022-11-27T01:04:05.533Z,100925.47
2022-11-27T01:06:32.813Z,100921.94
2022-11-27T01:09:00.676Z,100918.44
2022-11-27T01:11:31.006Z,100920.19
2022-11-27T01:14:01.173Z,100925.47
2022-11-27T01:16:31.162Z,100921.09
2022-11-27T01:19:02.049Z,100922.81
2022-11-27T01:21:32.583Z,100927.19
2022-11-27T01:24:00.710Z,100933.28
2022-11-27T01:26:28.294Z,100927.19
2022-11-27T01:28:57.505Z,100928.09
2022-11-27T01:31:30.279Z,100934.19
2022-11-27T01:34:06.662Z,100933.28
2022-11-27T01:36:35.179Z,100933.25
2022-11-27T01:39:02.703Z,100931.53
2022-11-27T01:41:40.130Z,100935.03
2022-11-27T01:44:25.572Z,100934.13
2022-11-27T01:46:58.531Z,100921.03
2022-11-27T01:49:33.592Z,100934.13
2022-11-27T01:52:07.446Z,100938.50
2022-11-27T01:55:20.516Z,100932.34
2022-11-27T01:57:57.263Z,100935.88
2022-11-27T02:00:26.316Z,100934.13
2022-11-27T02:02:53.675Z,100941.09
2022-11-27T02:05:25.131Z,100941.06
2022-11-27T02:07:54.063Z,100939.31
2022-11-27T02:10:23.367Z,100939.34
2022-11-27T02:13:03.479Z,100941.09
2022-11-27T02:15:57.719Z,100939.22
2022-11-27T02:18:43.517Z,100942.81
2022-11-27T02:21:28.639Z,100948.94
2022-11-27T02:24:15.447Z,100946.28
2022-11-27T02:27:03.915Z,100942.78
2022-11-27T02:29:34.055Z,100941.97
2022-11-27T02:32:28.727Z,100932.38
2022-11-27T02:35:04.719Z,100937.63
2022-11-27T02:37:43.627Z,100941.09
2022-11-27T02:40:22.430Z,100936.69
2022-11-27T02:43:18.279Z,100943.56
2022-11-27T02:45:50.911Z,100945.19
2022-11-27T02:48:22.003Z,100946.94
2022-11-27T02:50:52.300Z,100933.09
2022-11-27T02:53:25.803Z,100934.91
2022-11-27T02:55:53.668Z,100937.50
2022-11-27T02:58:28.598Z,100936.59
2022-11-27T03:00:57.133Z,100934.00
2022-11-27T03:03:32.973Z,100928.75
2022-11-27T03:06:09.488Z,100933.91
2022-11-27T03:08:46.940Z,100928.66
2022-11-27T03:11:15.806Z,100941.78
2022-11-27T03:13:50.684Z,100933.06
2022-11-27T03:16:40.898Z,100932.22
2022-11-27T03:19:43.305Z,100921.75
2022-11-27T03:22:11.927Z,100925.22
2022-11-27T03:24:39.835Z,100920.91
2022-11-27T03:27:07.407Z,100922.63
2022-11-27T03:29:48.854Z,100919.09
2022-11-27T03:32:17.152Z,100920.88
2022-11-27T03:34:44.754Z,100913.91
2022-11-27T03:37:12.211Z,100903.44
2022-11-27T03:39:39.682Z,100908.66
2022-11-27T03:42:19.957Z,100907.81
2022-11-27T03:44:47.289Z,100909.53
2022-11-27T03:47:39.721Z,100904.25
2022-11-27T03:50:42.263Z,100906.09
2022-11-27T03:53:20.038Z,100912.22
2022-11-27T03:56:14.299Z,100915.75
2022-11-27T03:58:51.829Z,100910.47
2022-11-27T04:01:23.209Z,100904.31
2022-11-27T04:03:50.688Z,100901.69
2022-11-27T04:06:18.138Z,100911.28
2022-11-27T04:08:47.538Z,100914.75
2022-11-27T04:11:15.724Z,100899.88
2022-11-27T04:13:43.157Z,100899.78
2022-11-27T04:16:11.681Z,100905.00
2022-11-27T04:18:40.005Z,100911.19
2022-11-27T04:21:07.434Z,100910.38
2022-11-27T04:23:37.886Z,100922.47
2022-11-27T04:26:05.967Z,100917.25
2022-11-27T04:28:33.386Z,100924.25
2022-11-27T04:31:00.936Z,100915.50
2022-11-27T04:33:28.885Z,100914.66
2022-11-27T04:35:56.310Z,100907.72
2022-11-27T04:38:23.818Z,100914.75
2022-11-27T04:40:53.948Z,100918.16
2022-11-27T04:43:23.267Z,100910.31
2022-11-27T04:45:50.803Z,100913.03
2022-11-27T04:48:18.196Z,100905.13
2022-11-27T04:50:45.961Z,100896.44
2022-11-27T04:53:13.118Z,100890.25
2022-11-27T04:55:40.575Z,100895.44
2022-11-27T04:58:07.934Z,100889.38
2022-11-27T05:00:34.940Z,100886.78
2022-11-27T05:03:02.477Z,100883.31
2022-11-27T05:05:30.878Z,100891.16
2022-11-27T05:07:59.488Z,100890.25
2022-11-27T05:10:26.779Z,100881.56
2022-11-27T05:12:53.784Z,100892.06
2022-11-27T05:15:21.284Z,100889.44
2022-11-27T05:17:48.625Z,100889.44
2022-11-27T05:20:17.899Z,100891.19
2022-11-27T05:22:46.347Z,100886.84
2022-11-27T05:25:13.558Z,100888.50
2022-11-27T05:27:40.434Z,100887.63
2022-11-27T05:30:09.222Z,100898.09
2022-11-27T05:32:37.880Z,100900.75
2022-11-27T05:35:05.114Z,100884.94
2022-11-27T05:37:33.418Z,100890.13
2022-11-27T05:40:00.425Z,100895.38
2022-11-27T05:42:27.835Z,100890.22
2022-11-27T05:44:58.294Z,100876.31
2022-11-27T05:47:25.856Z,100892.00
2022-11-27T05:49:53.458Z,100900.63
2022-11-27T05:52:20.728Z,100910.97
2022-11-27T05:54:49.268Z,100903.03
2022-11-27T05:57:16.614Z,100897.84
2022-11-27T05:59:44.637Z,100886.72
2022-11-27T06:02:18.113Z,100890.19
2022-11-27T06:04:47.746Z,100907.59
2022-11-27T06:07:16.839Z,100895.44
2022-11-27T06:09:44.197Z,100884.94
2022-11-27T06:12:13.718Z,100911.06
2022-11-27T06:14:41.328Z,100903.13
2022-11-27T06:17:11.694Z,100909.34
2022-11-27T06:19:39.142Z,100916.25
2022-11-27T06:22:07.078Z,100932.72
2022-11-27T06:24:36.133Z,100927.53
2022-11-27T06:27:03.086Z,100930.09
2022-11-27T06:29:31.075Z,100927.53
2022-11-27T06:31:58.624Z,100926.66
2022-11-27T06:34:26.969Z,100920.66
2022-11-27T06:36:53.959Z,100928.53
2022-11-27T06:39:21.343Z,100928.50
2022-11-27T06:41:50.287Z,100916.28
2022-11-27T06:44:17.325Z,100913.59
2022-11-27T06:46:45.818Z,100919.63
2022-11-27T06:49:13.204Z,100928.41
2022-11-27T06:51:40.250Z,100925.78
2022-11-27T06:54:07.596Z,100930.13
2022-11-27T06:56:34.585Z,100932.78
2022-11-27T06:59:02.293Z,100931.97
2022-11-27T07:01:31.392Z,100929.34
2022-11-27T07:03:59.862Z,100931.97
2022-11-27T07:06:27.608Z,100937.28
2022-11-27T07:08:55.574Z,100937.38
2022-11-27T07:11:28.812Z,100940.81
2022-11-27T07:14:02.098Z,100939.97
2022-11-27T07:16:32.022Z,100943.44
2022-11-27T07:19:03.719Z,100933.03
2022-11-27T07:21:31.504Z,100932.25
2022-11-27T07:23:58.849Z,100930.53
2022-11-27T07:26:28.917Z,100937.63
2022-11-27T07:28:57.566Z,100933.28
2022-11-27T07:31:29.291Z,100939.38
2022-11-27T07:33:57.520Z,100936.81
2022-11-27T07:36:30.663Z,100936.81
2022-11-27T07:38:58.450Z,100936.84
2022-11-27T07:41:30.625Z,100941.16
2022-11-27T07:44:00.911Z,100935.09
2022-11-27T07:46:30.350Z,100942.06
2022-11-27T07:48:58.339Z,100945.53
2022-11-27T07:51:28.084Z,100941.19
2022-11-27T07:53:55.274Z,100943.84
2022-11-27T07:56:23.174Z,100943.81
2022-11-27T07:58:58.553Z,100943.78
2022-11-27T08:01:26.968Z,100937.72
2022-11-27T08:03:54.274Z,100938.63
2022-11-27T08:06:24.845Z,100937.72
2022-11-27T08:08:53.416Z,100939.47
2022-11-27T08:11:30.463Z,100949.06
2022-11-27T08:14:07.437Z,100947.34
2022-11-27T08:16:36.391Z,100944.72
2022-11-27T08:19:03.753Z,100937.75
2022-11-27T08:21:33.112Z,100941.25
2022-11-27T08:24:00.567Z,100938.63
2022-11-27T08:26:29.633Z,100926.41
2022-11-27T08:28:57.892Z,100932.53
2022-11-27T08:31:25.509Z,100931.63
2022-11-27T08:33:53.014Z,100928.16
2022-11-27T08:36:20.629Z,100922.06
2022-11-27T08:38:47.894Z,100935.16
2022-11-27T08:41:15.455Z,100930.78
2022-11-27T08:43:42.762Z,100931.66
2022-11-27T08:46:10.568Z,100925.53
2022-11-27T08:48:37.963Z,100929.03
2022-11-27T08:51:14.143Z,100937.78
2022-11-27T08:53:47.439Z,100929.06
2022-11-27T08:56:18.169Z,100923.78
2022-11-27T08:58:47.693Z,100929.03
2022-11-27T09:01:18.195Z,100929.03
2022-11-27T09:03:47.059Z,100930.78
2022-11-27T09:06:17.129Z,100933.38
2022-11-27T09:08:45.988Z,100929.88
2022-11-27T09:11:15.034Z,100930.75
2022-11-27T09:13:42.765Z,100929.00
2022-11-27T09:16:16.229Z,100926.41
2022-11-27T09:18:50.347Z,100918.50
2022-11-27T09:21:20.571Z,100926.38
2022-11-27T09:23:52.604Z,100913.22
2022-11-27T09:26:20.986Z,100914.09
2022-11-27T09:28:48.196Z,100907.94
2022-11-27T09:31:16.209Z,100911.44
2022-11-27T09:33:44.739Z,100899.16
2022-11-27T09:36:19.635Z,100896.47
2022-11-27T09:38:47.947Z,100904.34
2022-11-27T09:41:51.995Z,100900.81
2022-11-27T09:44:40.670Z,100903.44
2022-11-27T09:47:41.057Z,100906.09
2022-11-27T09:50:30.358Z,100905.22
2022-11-27T09:53:00.646Z,100900.03
2022-11-27T09:55:35.480Z,100899.16
2022-11-27T09:58:07.024Z,100899.22
2022-11-27T10:00:34.467Z,100890.44
2022-11-27T10:03:02.075Z,100892.19
2022-11-27T10:05:49.866Z,100894.84
2022-11-27T10:08:27.483Z,100890.44
2022-11-27T10:11:07.392Z,100891.31
2022-11-27T10:14:21.148Z,100886.91
2022-11-27T10:16:54.503Z,100879.03
2022-11-27T10:19:51.995Z,100881.66
2022-11-27T10:22:27.113Z,100881.69
2022-11-27T10:25:02.042Z,100872.00
2022-11-27T10:27:29.000Z,100867.56
2022-11-27T10:29:58.073Z,100864.03
2022-11-27T10:32:54.644Z,100865.66
2022-11-27T10:35:31.272Z,100854.06
2022-11-27T10:38:17.793Z,100854.72
2022-11-27T10:41:48.059Z,100849.41
2022-11-27T10:44:27.512Z,100848.44
2022-11-27T10:47:01.776Z,100837.75
2022-11-27T10:49:29.328Z,100831.66
2022-11-27T10:51:56.920Z,100832.47
2022-11-27T10:54:32.797Z,100837.75
2022-11-27T10:57:20.879Z,100840.41
2022-11-27T11:00:05.586Z,100837.84
2022-11-27T11:02:41.520Z,100842.28
2022-11-27T11:05:37.737Z,100832.81
2022-11-27T11:08:21.034Z,100832.78
2022-11-27T11:11:00.039Z,100829.31
2022-11-27T11:13:33.252Z,100824.09
2022-11-27T11:16:05.232Z,100822.41
2022-11-27T11:18:35.973Z,100819.72
2022-11-27T11:21:07.388Z,100812.63
2022-11-27T11:23:39.089Z,100816.13
2022-11-27T11:26:24.555Z,100816.97
2022-11-27T11:28:55.804Z,100809.06
2022-11-27T11:31:33.326Z,100810.88
2022-11-27T11:34:15.630Z,100804.75
2022-11-27T11:36:58.309Z,100804.91
2022-11-27T11:39:29.557Z,100803.16
2022-11-27T11:41:57.588Z,100800.59
2022-11-27T11:44:33.907Z,100787.22
2022-11-27T11:47:03.481Z,100790.03
2022-11-27T11:49:36.816Z,100786.84
2022-11-27T11:52:14.035Z,100791.84
2022-11-27T11:55:03.581Z,100804.75
2022-11-27T11:57:58.255Z,100792.09
2022-11-27T12:00:48.674Z,100801.03
2022-11-27T12:03:49.507Z,100794.34
2022-11-27T12:06:19.711Z,100786.41
2022-11-27T12:08:58.674Z,100785.06
2022-11-27T12:11:29.068Z,100787.41
2022-11-27T12:14:41.876Z,100784.28
2022-11-27T12:17:24.278Z,100789.47
2022-11-27T12:20:45.725Z,100785.19
2022-11-27T12:23:42.183Z,100786.41
2022-11-27T12:26:12.673Z,100791.94
2022-11-27T12:28:59.334Z,100783.50
2022-11-27T12:32:08.684Z,100792.81
2022-11-27T12:35:04.627Z,100793.22
2022-11-27T12:37:38.069Z,100794.56
2022-11-27T12:40:25.047Z,100796.44
2022-11-27T12:43:07.427Z,100796.94
2022-11-27T12:45:45.819Z,100787.03
2022-11-27T12:48:26.167Z,100787.34
2022-11-27T12:51:03.428Z,100785.56
2022-11-27T12:53:37.266Z,100778.44
2022-11-27T12:56:21.399Z,100782.75
2022-11-27T12:58:55.158Z,100777.47
2022-11-27T13:01:55.357Z,100774.00
2022-11-27T13:04:52.240Z,100778.81
2022-11-27T13:07:46.498Z,100792.16
2022-11-27T13:10:13.614Z,100786.19
2022-11-27T13:13:07.035Z,100776.72
2022-11-27T13:15:50.888Z,100771.41
2022-11-27T13:18:31.434Z,100771.41
2022-11-27T13:21:01.921Z,100775.88
2022-11-27T13:23:34.235Z,100776.78
2022-11-27T13:26:17.489Z,100772.34
2022-11-27T13:28:52.682Z,100774.94
2022-11-27T13:31:24.655Z,100770.50
2022-11-27T13:34:04.955Z,100775.75
2022-11-27T13:36:45.119Z,100767.81
2022-11-27T13:39:28.848Z,100770.50
2022-11-27T13:42:04.366Z,100774.94
2022-11-27T13:44:31.594Z,100773.22
2022-11-27T13:47:06.152Z,100765.31
2022-11-27T13:49:36.660Z,100761.88
2022-11-27T13:52:15.565Z,100768.06
2022-11-27T13:54:53.949Z,100777.69
2022-11-27T13:57:21.909Z,100778.56
2022-11-27T14:00:13.355Z,100772.47
2022-11-27T14:02:52.841Z,100772.53
2022-11-27T14:05:34.231Z,100772.56
2022-11-27T14:08:01.725Z,100766.59
2022-11-27T14:10:32.468Z,100758.69
2022-11-27T14:13:05.282Z,100757.84
2022-11-27T14:15:37.043Z,100748.25
2022-11-27T14:18:22.825Z,100738.66
2022-11-27T14:20:56.921Z,100740.44
2022-11-27T14:23:50.067Z,100731.66
2022-11-27T14:26:22.499Z,100736.06
2022-11-27T14:28:55.451Z,100733.44
2022-11-27T14:31:31.902Z,100727.28
2022-11-27T14:34:23.192Z,100725.59
2022-11-27T14:36:52.857Z,100735.31
2022-11-27T14:39:35.355Z,100732.66
2022-11-27T14:42:28.504Z,100725.69
2022-11-27T14:45:12.973Z,100719.53
2022-11-27T14:47:45.973Z,100717.81
2022-11-27T14:50:21.183Z,100721.44
2022-11-27T14:52:56.408Z,100716.09
2022-11-27T14:55:25.712Z,100717.06
2022-11-27T14:58:02.172Z,100710.09
2022-11-27T15:00:30.412Z,100718.84
2022-11-27T15:03:11.202Z,100715.41
2022-11-27T15:05:39.593Z,100712.78
2022-11-27T15:08:10.226Z,100718.94
2022-11-27T15:10:45.598Z,100723.31
2022-11-27T15:13:26.964Z,100705.03
2022-11-27T15:16:02.424Z,100710.22
2022-11-27T15:18:34.255Z,100703.25
2022-11-27T15:21:09.153Z,100705.03
2022-11-27T15:23:36.778Z,100701.53
2022-11-27T15:26:19.938Z,100704.16
2022-11-27T15:28:53.323Z,100699.84
2022-11-27T15:31:33.638Z,100699.00
2022-11-27T15:34:05.887Z,100696.34
2022-11-27T15:36:41.216Z,100689.31
2022-11-27T15:39:17.808Z,100690.25
2022-11-27T15:41:56.896Z,100694.59
2022-11-27T15:44:26.424Z,100692.03
2022-11-27T15:47:01.855Z,100682.41
2022-11-27T15:49:30.104Z,100678.06
2022-11-27T15:51:58.768Z,100679.81
2022-11-27T15:54:26.567Z,100675.44
2022-11-27T15:56:53.964Z,100674.53
2022-11-27T15:59:21.419Z,100675.41
2022-11-27T16:01:50.000Z,100668.41
2022-11-27T16:04:19.013Z,100671.94
2022-11-27T16:06:47.263Z,100673.72
2022-11-27T16:09:15.173Z,100666.75
2022-11-27T16:11:43.857Z,100672.91
2022-11-27T16:14:12.763Z,100676.41
2022-11-27T16:16:40.748Z,100675.53
2022-11-27T16:19:08.451Z,100660.66
2022-11-27T16:21:36.890Z,100672.03
2022-11-27T16:24:06.979Z,100651.94
2022-11-27T16:26:35.208Z,100648.44
2022-11-27T16:29:02.772Z,100645.84
2022-11-27T16:31:32.328Z,100640.59
2022-11-27T16:34:06.770Z,100652.81
2022-11-27T16:36:34.173Z,100651.09
2022-11-27T16:39:02.254Z,100655.44
2022-11-27T16:41:29.560Z,100653.72
2022-11-27T16:43:57.574Z,100644.03
2022-11-27T16:46:30.368Z,100643.13
2022-11-27T16:48:59.734Z,100640.59
2022-11-27T16:51:41.676Z,100646.72
2022-11-27T16:54:12.084Z,100649.34
2022-11-27T16:56:40.878Z,100649.31
2022-11-27T16:59:11.120Z,100651.97
2022-11-27T17:01:39.567Z,100653.72
2022-11-27T17:04:09.774Z,100659.75
2022-11-27T17:06:39.652Z,100654.53
2022-11-27T17:09:08.397Z,100648.44
2022-11-27T17:11:37.147Z,100658.06
2022-11-27T17:14:08.678Z,100658.94
2022-11-27T17:16:43.251Z,100652.00
2022-11-27T17:19:15.626Z,100657.22
2022-11-27T17:21:43.120Z,100663.31
2022-11-27T17:24:16.131Z,100642.38
2022-11-27T17:26:45.136Z,100650.25
2022-11-27T17:29:15.118Z,100636.25
2022-11-27T17:31:44.322Z,100631.84
2022-11-27T17:34:14.196Z,100624.88
2022-11-27T17:36:43.267Z,100621.41
2022-11-27T17:39:12.514Z,100614.38
2022-11-27T17:41:41.247Z,100616.19
2022-11-27T17:44:09.400Z,100619.66
2022-11-27T17:46:37.515Z,100608.31
2022-11-27T17:49:06.914Z,100612.66
2022-11-27T17:51:36.967Z,100610.94
2022-11-27T17:54:06.323Z,100615.28
2022-11-27T17:56:35.353Z,100600.47
2022-11-27T17:59:03.853Z,100601.34
2022-11-27T18:01:32.264Z,100606.59
2022-11-27T18:04:01.472Z,100598.72
2022-11-27T18:06:29.195Z,100588.25
2022-11-27T18:08:58.255Z,100587.38
2022-11-27T18:11:30.080Z,100581.25
2022-11-27T18:13:59.845Z,100584.78
2022-11-27T18:16:34.731Z,100569.06
2022-11-27T18:19:08.240Z,100570.81
2022-11-27T18:21:37.665Z,100575.22
2022-11-27T18:24:23.475Z,100572.59
2022-11-27T18:27:08.007Z,100570.84
2022-11-27T18:29:42.061Z,100577.81
2022-11-27T18:32:11.105Z,100570.81
2022-11-27T18:34:38.981Z,100566.47
2022-11-27T18:37:06.561Z,100563.88
2022-11-27T18:39:35.991Z,100554.22
2022-11-27T18:42:05.298Z,100560.34
2022-11-27T18:44:44.881Z,100552.53
2022-11-27T18:47:16.545Z,100539.41
2022-11-27T18:49:46.684Z,100536.81
2022-11-27T18:52:15.080Z,100544.69
2022-11-27T18:54:43.360Z,100538.56
2022-11-27T18:57:11.606Z,100540.31
2022-11-27T18:59:40.029Z,100542.94
2022-11-27T19:02:11.216Z,100539.44
2022-11-27T19:04:40.379Z,100550.78
2022-11-27T19:07:08.557Z,100545.56
2022-11-27T19:09:36.432Z,100545.56
2022-11-27T19:12:06.700Z,100547.31
2022-11-27T19:14:35.004Z,100547.28
2022-11-27T19:17:03.932Z,100551.66
2022-11-27T19:22:23.676Z,100542.94
2022-11-27T19:24:51.557Z,100546.41
2022-11-27T19:27:19.372Z,100547.28
2022-11-27T19:29:48.319Z,100551.69
2022-11-27T19:32:16.439Z,100549.00
2022-11-27T19:34:44.516Z,100549.03
2022-11-27T19:37:12.315Z,100543.81
2022-11-27T19:39:40.214Z,100548.19
2022-11-27T19:42:09.298Z,100557.78
2022-11-27T19:44:37.233Z,100556.91
2022-11-27T19:47:05.169Z,100557.78
2022-11-27T19:49:33.377Z,100553.41
2022-11-27T19:52:03.416Z,100554.25
2022-11-27T19:54:31.115Z,100552.53
2022-11-27T19:56:59.240Z,100549.91
2022-11-27T19:59:27.594Z,100540.31
2022-11-27T20:01:55.859Z,100542.94
2022-11-27T20:04:23.640Z,100535.09
2022-11-27T20:06:53.436Z,100536.84
2022-11-27T20:09:23.091Z,100540.34
2022-11-27T20:11:57.411Z,100536.84
2022-11-27T20:14:25.252Z,100534.22
2022-11-27T20:16:53.146Z,100533.34
2022-11-27T20:19:21.253Z,100525.47
2022-11-27T20:21:49.139Z,100536.81
2022-11-27T20:24:16.999Z,100529.88
2022-11-27T20:26:45.015Z,100529.00
2022-11-27T20:29:14.070Z,100527.25
2022-11-27T20:31:48.555Z,100520.25
2022-11-27T20:34:21.428Z,100523.75
2022-11-27T20:36:58.101Z,100520.28
2022-11-27T20:39:25.961Z,100516.78
2022-11-27T20:41:59.956Z,100509.81
2022-11-27T20:44:29.429Z,100507.19
2022-11-27T20:46:57.618Z,100501.06
2022-11-27T20:49:27.396Z,100498.47
2022-11-27T20:51:56.045Z,100487.13
2022-11-27T20:54:23.711Z,100476.66
2022-11-27T20:56:54.370Z,100480.16
2022-11-27T20:59:23.586Z,100471.47
2022-11-27T21:01:51.423Z,100475.81
2022-11-27T21:04:25.084Z,100464.47
2022-11-27T21:06:52.576Z,100469.69
2022-11-27T21:09:21.774Z,100461.88
2022-11-27T21:11:51.661Z,100454.00
2022-11-27T21:14:19.595Z,100461.88
2022-11-27T21:16:49.163Z,100460.97
2022-11-27T21:19:20.113Z,100454.88
2022-11-27T21:21:52.254Z,100453.13
2022-11-27T21:24:22.250Z,100451.41
2022-11-27T21:26:52.024Z,100452.28
2022-11-27T21:29:25.700Z,100453.13
2022-11-27T21:31:53.830Z,100451.41
2022-11-27T21:34:24.321Z,100446.16
2022-11-27T21:36:57.601Z,100450.50
2022-11-27T21:39:26.090Z,100454.00
2022-11-27T21:41:55.646Z,100441.78
2022-11-27T21:44:24.846Z,100433.06
2022-11-27T21:46:53.151Z,100434.84
2022-11-27T21:49:21.576Z,100434.84
2022-11-27T21:51:53.810Z,100433.94
2022-11-27T21:54:21.557Z,100427.84
2022-11-27T21:56:53.097Z,100428.72
2022-11-27T21:59:20.581Z,100433.09
2022-11-27T22:01:47.797Z,100433.94
2022-11-27T22:04:15.244Z,100426.97
2022-11-27T22:06:43.781Z,100420.00
2022-11-27T22:09:15.277Z,100420.88
2022-11-27T22:11:52.554Z,100407.75
2022-11-27T22:14:20.787Z,100420.00
2022-11-27T22:16:48.349Z,100417.34
2022-11-27T22:19:16.569Z,100414.75
2022-11-27T22:21:51.281Z,100414.75
2022-11-27T22:24:20.784Z,100417.34
2022-11-27T22:26:48.961Z,100421.72
2022-11-27T22:29:16.319Z,100420.88
2022-11-27T22:31:43.713Z,100415.63
2022-11-27T22:34:11.205Z,100422.63
2022-11-27T22:36:38.732Z,100420.88
2022-11-27T22:39:08.624Z,100420.88
2022-11-27T22:41:37.206Z,100420.88
2022-11-27T22:44:15.562Z,100432.19
2022-11-27T22:46:44.967Z,100431.31
2022-11-27T22:49:15.770Z,100434.84
2022-11-27T22:51:48.953Z,100426.13
2022-11-27T22:54:17.432Z,100420.88
2022-11-27T22:56:46.759Z,100418.28
2022-11-27T23:02:01.883Z,100413.03
2022-11-27T23:04:29.301Z,100412.16
2022-11-27T23:06:56.776Z,100412.16
2022-11-27T23:09:24.840Z,100408.66
2022-11-27T23:11:52.383Z,100408.69
2022-11-27T23:14:19.616Z,100413.91
2022-11-27T23:16:46.704Z,100410.41
2022-11-27T23:19:18.056Z,100410.44
2022-11-27T23:21:45.146Z,100400.84
2022-11-27T23:24:15.442Z,100407.78
2022-11-27T23:26:46.020Z,100408.69
2022-11-27T23:29:14.181Z,100406.03
2022-11-27T23:31:42.132Z,100403.44
2022-11-27T23:34:13.399Z,100403.44
2022-11-27T23:36:40.806Z,100394.72
2022-11-27T23:39:09.593Z,100386.03
2022-11-27T23:41:37.064Z,100387.75
2022-11-27T23:44:04.587Z,100384.28
2022-11-27T23:46:32.204Z,100386.91
2022-11-27T23:49:00.953Z,100379.03
2022-11-27T23:51:32.098Z,100384.28
2022-11-27T23:54:00.654Z,100377.28
2022-11-27T23:56:30.910Z,100371.22
2022-11-27T23:59:00.101Z,100363.38
